createdAt,value
2018-12-03T00:01:21.331Z,3.70
2018-12-03T00:03:50.669Z,3.02
2018-12-03T00:06:20.356Z,3.40
2018-12-03T00:08:49.609Z,2.70
2018-12-03T00:11:18.996Z,2.37
2018-12-03T00:13:48.381Z,2.43
2018-12-03T00:16:17.596Z,2.70
2018-12-03T00:18:46.869Z,2.20
2018-12-03T00:21:16.629Z,2.12
2018-12-03T00:23:45.986Z,2.20
2018-12-03T00:26:15.378Z,2.10
2018-12-03T00:28:44.597Z,2.00
2018-12-03T00:31:16.725Z,1.60
2018-12-03T00:33:45.947Z,1.93
2018-12-03T00:36:15.502Z,2.60
2018-12-03T00:38:44.784Z,1.70
2018-12-03T00:41:14.892Z,1.80
2018-12-03T00:43:44.162Z,1.90
2018-12-03T00:46:14.122Z,2.00
2018-12-03T00:48:43.461Z,1.00
2018-12-03T00:51:13.232Z,1.70
2018-12-03T00:53:42.681Z,1.30
2018-12-03T00:56:12.037Z,1.13
2018-12-03T00:58:41.332Z,1.13
2018-12-03T01:01:10.675Z,1.07
2018-12-03T01:03:39.969Z,2.70
2018-12-03T01:06:09.302Z,1.43
2018-12-03T01:08:38.588Z,1.37
2018-12-03T01:11:07.817Z,1.00
2018-12-03T01:13:37.167Z,0.90
2018-12-03T01:16:06.457Z,0.87
2018-12-03T01:18:35.737Z,0.73
2018-12-03T01:21:05.364Z,0.83
2018-12-03T01:23:34.591Z,0.80
2018-12-03T01:26:03.812Z,0.90
2018-12-03T01:28:33.026Z,0.90
2018-12-03T01:31:02.267Z,1.00
2018-12-03T01:33:31.478Z,0.83
2018-12-03T01:36:00.782Z,1.30
2018-12-03T01:38:30.088Z,0.80
2018-12-03T01:40:59.406Z,0.80
2018-12-03T01:43:28.651Z,0.73
2018-12-03T01:45:58.211Z,0.80
2018-12-03T01:48:27.442Z,0.80
2018-12-03T01:50:56.700Z,0.70
2018-12-03T01:53:25.920Z,0.60
2018-12-03T01:55:55.258Z,0.90
2018-12-03T01:58:24.492Z,0.80
2018-12-03T02:00:53.723Z,0.77
2018-12-03T02:03:22.952Z,1.00
2018-12-03T02:05:52.183Z,1.07
2018-12-03T02:08:21.469Z,1.10
2018-12-03T02:10:50.714Z,0.90
2018-12-03T02:13:19.972Z,1.00
2018-12-03T02:15:49.271Z,1.17
2018-12-03T02:18:18.457Z,1.67
2018-12-03T02:20:48.669Z,1.10
2018-12-03T02:23:17.878Z,1.20
2018-12-03T02:25:47.175Z,1.03
2018-12-03T02:28:16.444Z,1.20
2018-12-03T02:30:45.996Z,0.90
2018-12-03T02:33:15.921Z,1.30
2018-12-03T02:35:45.212Z,1.10
2018-12-03T02:38:14.508Z,2.33
2018-12-03T02:40:43.858Z,1.07
2018-12-03T02:43:13.692Z,1.30
2018-12-03T02:45:42.921Z,1.13
2018-12-03T02:48:12.190Z,2.20
2018-12-03T02:50:41.403Z,1.40
2018-12-03T02:53:10.682Z,1.43
2018-12-03T02:55:39.914Z,1.50
2018-12-03T02:58:09.151Z,1.40
2018-12-03T03:00:39.844Z,1.50
2018-12-03T03:03:09.148Z,1.40
2018-12-03T03:05:38.481Z,1.60
2018-12-03T03:08:07.754Z,1.50
2018-12-03T03:10:36.977Z,1.20
2018-12-03T03:13:06.311Z,1.20
2018-12-03T03:15:35.489Z,1.37
2018-12-03T03:18:04.751Z,1.37
2018-12-03T03:20:33.951Z,0.97
2018-12-03T03:23:03.172Z,1.07
2018-12-03T03:25:32.357Z,1.00
2018-12-03T03:28:01.647Z,0.80
2018-12-03T03:30:30.888Z,1.00
2018-12-03T03:33:00.111Z,1.00
2018-12-03T03:35:29.361Z,1.20
2018-12-03T03:37:58.712Z,1.00
2018-12-03T03:40:27.995Z,1.00
2018-12-03T03:42:57.277Z,1.30
2018-12-03T03:45:26.768Z,2.47
2018-12-03T03:47:55.996Z,0.97
2018-12-03T03:50:25.228Z,0.80
2018-12-03T03:52:54.456Z,0.90
2018-12-03T03:55:23.707Z,0.87
2018-12-03T03:57:53.129Z,1.10
2018-12-03T04:00:22.475Z,0.80
2018-12-03T04:02:52.031Z,1.17
2018-12-03T04:05:21.785Z,1.40
2018-12-03T04:07:51.022Z,1.67
2018-12-03T04:10:20.603Z,1.50
2018-12-03T04:12:56.521Z,1.77
2018-12-03T04:15:25.738Z,2.00
2018-12-03T04:17:55.010Z,1.80
2018-12-03T04:20:24.280Z,1.90
2018-12-03T04:22:54.656Z,1.57
2018-12-03T04:25:23.962Z,1.70
2018-12-03T04:27:53.210Z,2.23
2018-12-03T04:30:23.047Z,1.60
2018-12-03T04:32:53.138Z,2.00
2018-12-03T04:35:23.765Z,1.90
2018-12-03T04:37:53.135Z,2.17
2018-12-03T04:40:22.400Z,2.07
2018-12-03T04:42:51.749Z,2.53
2018-12-03T04:45:21.084Z,3.30
2018-12-03T04:47:50.797Z,3.53
2018-12-03T04:50:20.909Z,4.00
2018-12-03T04:52:50.198Z,4.20
2018-12-03T04:55:20.296Z,3.83
2018-12-03T04:57:49.733Z,4.63
2018-12-03T05:00:20.205Z,4.43
2018-12-03T05:02:51.605Z,4.80
2018-12-03T05:05:21.054Z,6.10
2018-12-03T05:07:50.358Z,6.90
2018-12-03T05:10:21.047Z,9.50
2018-12-03T05:12:51.362Z,10.80
2018-12-03T05:15:20.784Z,13.85
2018-12-03T05:17:50.013Z,7.80
2018-12-03T05:20:20.550Z,9.13
2018-12-03T05:22:49.829Z,7.00
2018-12-03T05:25:19.800Z,7.03
2018-12-03T05:27:48.978Z,6.00
2018-12-03T05:30:18.940Z,6.47
2018-12-03T05:32:48.217Z,5.63
2018-12-03T05:35:22.354Z,5.33
2018-12-03T05:37:51.842Z,5.27
2018-12-03T05:40:35.743Z,5.70
2018-12-03T05:43:05.180Z,4.03
2018-12-03T05:45:34.442Z,3.00
2018-12-03T05:48:03.786Z,3.03
2018-12-03T05:50:33.055Z,3.27
2018-12-03T05:53:02.387Z,3.20
2018-12-03T05:55:32.231Z,3.53
2018-12-03T05:58:01.605Z,2.70
2018-12-03T06:00:30.925Z,2.77
2018-12-03T06:03:00.247Z,1.70
2018-12-03T06:05:29.853Z,1.45
2018-12-03T06:07:59.186Z,1.40
2018-12-03T06:10:28.366Z,1.40
2018-12-03T06:12:57.573Z,1.53
2018-12-03T06:15:26.800Z,1.40
2018-12-03T06:17:56.001Z,1.57
2018-12-03T06:20:25.240Z,1.27
2018-12-03T06:22:55.029Z,1.50
2018-12-03T06:28:22.522Z,2.50
2018-12-03T06:30:51.742Z,1.67
2018-12-03T06:33:21.456Z,2.30
2018-12-03T06:35:50.648Z,3.20
2018-12-03T06:38:19.929Z,3.77
2018-12-03T06:40:49.121Z,3.60
2018-12-03T06:43:18.465Z,5.25
2018-12-03T06:45:48.472Z,4.53
2018-12-03T06:48:21.459Z,3.90
2018-12-03T06:50:50.703Z,4.15
2018-12-03T06:53:20.060Z,4.00
2018-12-03T06:55:49.290Z,4.07
2018-12-03T06:58:18.569Z,4.40
2018-12-03T07:00:48.568Z,4.10
2018-12-03T07:03:17.853Z,4.17
2018-12-03T07:05:48.144Z,3.43
2018-12-03T07:08:17.886Z,3.50
2018-12-03T07:10:47.146Z,3.90
2018-12-03T07:13:20.278Z,3.17
2018-12-03T07:15:53.707Z,2.63
2018-12-03T07:18:23.023Z,2.30
2018-12-03T07:20:52.244Z,1.53
2018-12-03T07:23:21.489Z,1.93
2018-12-03T07:25:51.098Z,1.70
2018-12-03T07:28:20.353Z,1.53
2018-12-03T07:30:49.737Z,1.60
2018-12-03T07:33:18.982Z,1.30
2018-12-03T07:35:48.961Z,1.92
2018-12-03T07:38:18.353Z,1.70
2018-12-03T07:40:47.607Z,1.40
2018-12-03T07:43:16.790Z,1.40
2018-12-03T07:45:46.095Z,1.77
2018-12-03T07:48:15.343Z,1.90
2018-12-03T07:50:44.554Z,2.23
2018-12-03T07:53:13.837Z,2.40
2018-12-03T07:55:43.109Z,3.20
2018-12-03T07:58:14.329Z,2.43
2018-12-03T08:00:48.149Z,2.63
2018-12-03T08:03:17.541Z,2.40
2018-12-03T08:05:47.402Z,1.57
2018-12-03T08:08:16.076Z,1.67
2018-12-03T08:10:47.692Z,1.77
2018-12-03T08:13:17.764Z,1.80
2018-12-03T08:15:47.053Z,2.00
2018-12-03T08:18:18.677Z,2.63
2018-12-03T08:20:51.495Z,1.70
2018-12-03T08:23:42.099Z,1.57
2018-12-03T08:26:12.189Z,1.40
2018-12-03T08:28:41.446Z,1.80
2018-12-03T08:31:10.856Z,1.87
2018-12-03T08:33:40.115Z,1.57
2018-12-03T08:36:10.022Z,1.87
2018-12-03T08:38:39.636Z,2.10
2018-12-03T08:41:09.339Z,1.87
2018-12-03T08:43:38.515Z,2.30
2018-12-03T08:46:09.602Z,2.00
2018-12-03T08:48:42.537Z,3.00
2018-12-03T08:51:13.038Z,3.97
2018-12-03T08:53:47.316Z,3.27
2018-12-03T08:56:16.664Z,1.97
2018-12-03T08:58:46.744Z,2.45
2018-12-03T09:01:17.817Z,2.10
2018-12-03T09:04:21.076Z,2.37
2018-12-03T09:06:50.300Z,1.83
2018-12-03T09:09:19.533Z,2.97
2018-12-03T09:11:50.294Z,2.30
2018-12-03T09:14:20.665Z,2.10
2018-12-03T09:16:49.998Z,1.60
2018-12-03T09:19:19.227Z,1.87
2018-12-03T09:21:48.529Z,1.97
2018-12-03T09:24:17.728Z,1.70
2018-12-03T09:26:47.023Z,1.70
2018-12-03T09:29:16.426Z,2.30
2018-12-03T09:31:45.665Z,2.00
2018-12-03T09:34:14.883Z,1.43
2018-12-03T09:36:44.161Z,1.85
2018-12-03T09:39:16.324Z,2.00
2018-12-03T09:41:46.521Z,3.60
2018-12-03T09:44:15.821Z,2.60
2018-12-03T09:46:45.102Z,1.97
2018-12-03T09:49:14.345Z,1.93
2018-12-03T09:51:43.541Z,1.87
2018-12-03T09:54:12.830Z,2.00
2018-12-03T09:56:46.819Z,1.60
2018-12-03T09:59:17.317Z,2.10
2018-12-03T10:01:48.683Z,2.20
2018-12-03T10:04:25.436Z,1.77
2018-12-03T10:06:54.715Z,1.90
2018-12-03T10:09:23.930Z,1.80
2018-12-03T10:11:57.654Z,1.90
2018-12-03T10:14:26.905Z,2.20
2018-12-03T10:16:56.178Z,2.00
2018-12-03T10:19:25.544Z,2.77
2018-12-03T10:21:54.834Z,2.90
2018-12-03T10:24:24.001Z,2.40
2018-12-03T10:26:53.272Z,2.70
2018-12-03T10:29:22.549Z,2.65
2018-12-03T10:31:51.808Z,2.77
2018-12-03T10:34:21.243Z,2.60
2018-12-03T10:36:52.687Z,3.47
2018-12-03T10:39:27.847Z,3.30
2018-12-03T10:42:00.148Z,2.93
2018-12-03T10:44:29.427Z,2.70
2018-12-03T10:46:58.705Z,3.15
2018-12-03T10:49:28.008Z,2.80
2018-12-03T10:51:57.258Z,2.27
2018-12-03T10:54:26.591Z,1.90
2018-12-03T10:56:57.493Z,2.25
2018-12-03T10:59:26.794Z,3.27
2018-12-03T11:02:01.235Z,2.03
2018-12-03T11:04:40.624Z,1.83
2018-12-03T11:07:15.002Z,2.17
2018-12-03T11:09:45.639Z,2.37
2018-12-03T11:12:16.123Z,1.87
2018-12-03T11:14:46.779Z,1.80
2018-12-03T11:17:17.512Z,2.07
2018-12-03T11:19:48.192Z,2.10
2018-12-03T11:22:22.069Z,2.63
2018-12-03T11:24:51.347Z,1.70
2018-12-03T11:27:21.474Z,2.27
2018-12-03T11:29:50.940Z,2.20
2018-12-03T11:32:21.165Z,1.45
2018-12-03T11:34:50.392Z,1.47
2018-12-03T11:37:20.538Z,1.23
2018-12-03T11:39:56.227Z,1.40
2018-12-03T11:42:28.043Z,1.30
2018-12-03T11:44:57.301Z,1.50
2018-12-03T11:47:26.554Z,1.20
2018-12-03T11:49:55.815Z,1.07
2018-12-03T11:52:25.171Z,1.43
2018-12-03T11:54:54.384Z,1.27
2018-12-03T11:57:23.708Z,1.00
2018-12-03T11:59:52.988Z,1.10
2018-12-03T12:02:22.281Z,0.90
2018-12-03T12:04:51.524Z,1.30
2018-12-03T12:07:20.810Z,1.20
2018-12-03T12:09:50.046Z,1.10
2018-12-03T12:12:19.304Z,1.20
2018-12-03T12:14:48.549Z,1.20
2018-12-03T12:17:17.979Z,0.90
2018-12-03T12:19:50.253Z,1.10
2018-12-03T12:22:19.656Z,1.10
2018-12-03T12:24:48.893Z,1.80
2018-12-03T12:27:18.219Z,1.30
2018-12-03T12:29:47.490Z,1.00
2018-12-03T12:32:16.760Z,1.00
2018-12-03T12:34:46.052Z,0.90
2018-12-03T12:37:15.316Z,1.23
2018-12-03T12:39:44.576Z,1.07
2018-12-03T12:42:13.949Z,1.40
2018-12-03T12:44:43.346Z,1.13
2018-12-03T12:47:12.968Z,1.10
2018-12-03T12:49:42.213Z,1.10
2018-12-03T12:52:11.736Z,1.10
2018-12-03T12:54:40.951Z,1.30
2018-12-03T12:57:10.429Z,1.00
2018-12-03T12:59:39.705Z,1.70
2018-12-03T13:02:10.637Z,1.10
2018-12-03T13:04:39.957Z,1.20
2018-12-03T13:07:10.296Z,1.30
2018-12-03T13:09:39.548Z,0.93
2018-12-03T13:12:09.581Z,1.57
2018-12-03T13:14:38.824Z,1.20
2018-12-03T13:17:08.526Z,1.07
2018-12-03T13:19:37.779Z,1.00
2018-12-03T13:22:07.419Z,1.10
2018-12-03T13:24:36.640Z,1.10
2018-12-03T13:27:06.801Z,0.90
2018-12-03T13:29:36.004Z,1.10
2018-12-03T13:32:05.649Z,1.10
2018-12-03T13:34:34.894Z,1.30
2018-12-03T13:37:04.420Z,1.03
2018-12-03T13:39:33.729Z,1.03
2018-12-03T13:42:03.148Z,1.10
2018-12-03T13:44:32.387Z,0.90
2018-12-03T13:47:01.560Z,1.00
2018-12-03T13:49:30.858Z,1.10
2018-12-03T13:52:00.076Z,1.95
2018-12-03T13:54:29.360Z,1.07
2018-12-03T13:56:58.573Z,1.20
2018-12-03T13:59:27.931Z,1.40
2018-12-03T14:01:57.144Z,1.30
2018-12-03T14:04:26.449Z,1.50
2018-12-03T14:07:15.747Z,1.20
2018-12-03T14:09:58.058Z,1.40
2018-12-03T14:12:45.683Z,1.33
2018-12-03T14:16:00.306Z,1.30
2018-12-03T14:18:40.370Z,1.33
2018-12-03T14:21:14.336Z,1.30
2018-12-03T14:23:44.254Z,2.40
2018-12-03T14:26:13.525Z,1.20
2018-12-03T14:28:43.498Z,1.50
2018-12-03T14:31:12.198Z,1.20
2018-12-03T14:33:41.371Z,1.20
2018-12-03T14:36:11.267Z,1.03
2018-12-03T14:38:40.615Z,1.30
2018-12-03T14:41:10.310Z,1.33
2018-12-03T14:43:39.569Z,1.50
2018-12-03T14:46:09.293Z,1.40
2018-12-03T14:48:38.547Z,1.70
2018-12-03T14:51:08.431Z,1.50
2018-12-03T14:53:37.610Z,1.40
2018-12-03T14:56:06.888Z,1.57
2018-12-03T14:58:36.157Z,1.30
2018-12-03T15:01:05.453Z,1.30
2018-12-03T15:03:34.686Z,1.33
2018-12-03T15:06:03.985Z,1.33
2018-12-03T15:08:33.210Z,1.80
2018-12-03T15:11:02.455Z,1.80
2018-12-03T15:13:31.683Z,1.50
2018-12-03T15:16:00.960Z,1.20
2018-12-03T15:18:30.285Z,1.50
2018-12-03T15:20:59.617Z,1.50
2018-12-03T15:23:28.953Z,1.70
2018-12-03T15:25:58.330Z,1.53
2018-12-03T15:28:28.305Z,1.20
2018-12-03T15:30:57.617Z,1.40
2018-12-03T15:33:26.814Z,1.67
2018-12-03T15:35:56.090Z,1.42
2018-12-03T15:38:25.345Z,2.10
2018-12-03T15:40:54.581Z,1.90
2018-12-03T15:43:23.785Z,1.73
2018-12-03T15:45:53.018Z,1.70
2018-12-03T15:48:22.254Z,2.30
2018-12-03T15:50:51.521Z,1.50
2018-12-03T15:53:20.769Z,1.72
2018-12-03T15:55:49.978Z,1.63
2018-12-03T15:58:19.209Z,1.63
2018-12-03T16:00:48.480Z,1.57
2018-12-03T16:03:17.778Z,1.33
2018-12-03T16:05:47.114Z,1.50
2018-12-03T16:08:16.366Z,1.40
2018-12-03T16:10:45.682Z,1.23
2018-12-03T16:13:14.913Z,1.53
2018-12-03T16:15:44.187Z,1.37
2018-12-03T16:18:13.931Z,1.60
2018-12-03T16:20:43.118Z,1.70
2018-12-03T16:23:12.493Z,1.50
2018-12-03T16:25:41.667Z,1.20
2018-12-03T16:28:10.949Z,1.27
2018-12-03T16:30:40.303Z,1.37
2018-12-03T16:33:09.546Z,1.23
2018-12-03T16:35:38.802Z,1.30
2018-12-03T16:38:08.028Z,1.20
2018-12-03T16:40:37.292Z,1.50
2018-12-03T16:43:06.679Z,1.60
2018-12-03T16:45:36.391Z,1.52
2018-12-03T16:48:05.605Z,1.70
2018-12-03T16:50:34.938Z,1.73
2018-12-03T16:53:04.346Z,1.87
2018-12-03T16:55:33.680Z,3.10
2018-12-03T16:58:02.979Z,2.40
2018-12-03T17:00:32.383Z,2.90
2018-12-03T17:03:01.594Z,2.53
2018-12-03T17:05:31.016Z,3.13
2018-12-03T17:08:00.272Z,3.63
2018-12-03T17:10:29.636Z,2.98
2018-12-03T17:12:59.325Z,2.80
2018-12-03T17:15:28.630Z,3.40
2018-12-03T17:17:57.895Z,3.40
2018-12-03T17:20:32.414Z,3.05
2018-12-03T17:23:21.301Z,3.53
2018-12-03T17:25:50.865Z,3.92
2018-12-03T17:28:20.065Z,3.00
2018-12-03T17:30:49.461Z,3.07
2018-12-03T17:33:21.851Z,3.52
2018-12-03T17:35:51.146Z,3.20
2018-12-03T17:38:20.372Z,3.40
2018-12-03T17:40:49.723Z,3.53
2018-12-03T17:43:19.043Z,3.43
2018-12-03T17:45:48.350Z,4.00
2018-12-03T17:48:17.675Z,2.90
2018-12-03T17:50:47.005Z,2.73
2018-12-03T17:53:16.301Z,2.73
2018-12-03T17:55:45.764Z,3.10
2018-12-03T17:58:15.720Z,2.77
2018-12-03T18:00:45.082Z,3.10
2018-12-03T18:03:14.859Z,3.27
2018-12-03T18:05:44.101Z,3.80
2018-12-03T18:08:13.936Z,3.27
2018-12-03T18:10:43.199Z,2.50
2018-12-03T18:13:12.428Z,2.17
2018-12-03T18:15:41.820Z,2.37
2018-12-03T18:18:11.071Z,2.03
2018-12-03T18:20:40.271Z,2.20
2018-12-03T18:23:09.492Z,1.90
2018-12-03T18:25:38.742Z,2.60
2018-12-03T18:28:07.989Z,1.70
2018-12-03T18:30:37.380Z,2.87
2018-12-03T18:33:06.642Z,2.40
2018-12-03T18:35:35.884Z,1.80
2018-12-03T18:38:05.094Z,2.20
2018-12-03T18:40:34.426Z,2.30
2018-12-03T18:43:03.780Z,1.90
2018-12-03T18:45:32.978Z,1.50
2018-12-03T18:48:02.195Z,2.27
2018-12-03T18:50:34.237Z,1.72
2018-12-03T18:53:09.489Z,1.50
2018-12-03T18:55:38.702Z,1.67
2018-12-03T18:58:08.401Z,1.65
2018-12-03T19:00:37.837Z,2.00
2018-12-03T19:03:07.161Z,1.80
2018-12-03T19:05:36.437Z,2.80
2018-12-03T19:08:14.266Z,2.63
2018-12-03T19:10:44.114Z,2.67
2018-12-03T19:13:13.888Z,3.07
2018-12-03T19:15:49.633Z,3.35
2018-12-03T19:18:18.927Z,3.10
2018-12-03T19:20:48.125Z,3.40
2018-12-03T19:23:17.785Z,3.50
2018-12-03T19:25:47.005Z,3.87
2018-12-03T19:28:16.326Z,5.20
2018-12-03T19:30:46.640Z,4.33
2018-12-03T19:33:17.740Z,4.40
2018-12-03T19:35:47.119Z,3.87
2018-12-03T19:38:18.488Z,4.33
2018-12-03T19:40:47.867Z,3.80
2018-12-03T19:43:17.403Z,4.90
2018-12-03T19:45:47.285Z,3.80
2018-12-03T19:48:16.616Z,3.80
2018-12-03T19:50:46.035Z,4.63
2018-12-03T19:53:16.546Z,5.00
2018-12-03T19:55:46.798Z,4.43
2018-12-03T19:58:20.274Z,3.83
2018-12-03T20:00:50.127Z,4.47
2018-12-03T20:03:19.393Z,4.87
2018-12-03T20:05:48.631Z,4.33
2018-12-03T20:08:18.338Z,4.03
2018-12-03T20:10:47.595Z,4.50
2018-12-03T20:13:16.812Z,3.87
2018-12-03T20:15:46.030Z,3.53
2018-12-03T20:18:15.790Z,3.70
2018-12-03T20:20:52.682Z,3.90
2018-12-03T20:23:29.077Z,3.80
2018-12-03T20:26:04.961Z,3.77
2018-12-03T20:31:15.970Z,3.90
2018-12-03T20:33:55.753Z,3.50
2018-12-03T20:36:37.645Z,3.00
2018-12-03T20:41:20.624Z,3.10
2018-12-03T20:43:51.397Z,3.10
2018-12-03T20:46:27.612Z,3.05
2018-12-03T20:49:05.920Z,3.10
2018-12-03T20:51:37.905Z,3.40
2018-12-03T20:54:07.417Z,3.20
2018-12-03T20:56:36.658Z,3.17
2018-12-03T20:59:05.903Z,2.70
2018-12-03T21:01:38.624Z,3.40
2018-12-03T21:09:32.120Z,2.87
2018-12-03T21:12:01.414Z,2.70
2018-12-03T21:14:30.625Z,2.60
2018-12-03T21:16:59.857Z,2.40
2018-12-03T21:19:29.085Z,2.80
2018-12-03T21:21:58.786Z,2.90
2018-12-03T21:24:28.070Z,2.42
2018-12-03T21:26:57.359Z,1.80
2018-12-03T21:29:26.661Z,2.13
2018-12-03T21:31:56.034Z,2.20
2018-12-03T21:34:25.572Z,2.57
2018-12-03T21:36:55.242Z,2.67
2018-12-03T21:39:24.530Z,1.90
2018-12-03T21:41:53.849Z,2.17
2018-12-03T21:44:24.760Z,1.90
2018-12-03T21:46:54.049Z,1.90
2018-12-03T21:49:23.780Z,2.00
2018-12-03T21:51:53.062Z,1.80
2018-12-03T21:54:24.078Z,1.70
2018-12-03T21:56:53.761Z,1.53
2018-12-03T21:59:23.110Z,1.47
2018-12-03T22:01:52.371Z,1.53
2018-12-03T22:04:21.769Z,2.80
2018-12-03T22:06:51.089Z,1.53
2018-12-03T22:09:20.554Z,1.53
2018-12-03T22:11:49.817Z,1.60
2018-12-03T22:14:19.071Z,1.50
2018-12-03T22:16:48.378Z,1.50
2018-12-03T22:19:17.584Z,1.53
2018-12-03T22:21:46.802Z,1.70
2018-12-03T22:24:16.701Z,1.80
2018-12-03T22:26:46.001Z,2.70
2018-12-03T22:29:15.710Z,2.67
2018-12-03T22:31:44.995Z,2.17
2018-12-03T22:34:14.380Z,2.30
2018-12-03T22:36:43.578Z,1.80
2018-12-03T22:39:12.883Z,2.13
2018-12-03T22:41:42.093Z,1.93
2018-12-03T22:44:11.526Z,1.80
2018-12-03T22:46:40.813Z,2.03
2018-12-03T22:49:11.297Z,2.13
2018-12-03T22:51:54.838Z,1.97
2018-12-03T22:54:24.761Z,2.20
2018-12-03T22:56:53.955Z,1.67
2018-12-03T22:59:23.303Z,1.80
2018-12-03T23:01:52.567Z,1.60
2018-12-03T23:04:21.997Z,2.30
2018-12-03T23:06:51.908Z,1.90
2018-12-03T23:09:21.141Z,2.20
2018-12-03T23:11:50.780Z,1.70
2018-12-03T23:14:20.072Z,1.90
2018-12-03T23:16:52.206Z,1.83
2018-12-03T23:19:21.393Z,1.90
2018-12-03T23:21:50.611Z,1.90
2018-12-03T23:24:19.861Z,2.00
2018-12-03T23:26:49.203Z,1.93
2018-12-03T23:29:18.461Z,1.53
2018-12-03T23:31:47.708Z,1.80
2018-12-03T23:34:17.864Z,2.62
2018-12-03T23:36:47.102Z,1.73
2018-12-03T23:39:16.971Z,2.07
2018-12-03T23:41:46.205Z,2.13
2018-12-03T23:44:16.837Z,2.52
2018-12-03T23:46:46.089Z,1.70
2018-12-03T23:49:15.685Z,1.60
2018-12-03T23:51:44.954Z,1.95
2018-12-03T23:54:14.926Z,1.50
2018-12-03T23:56:44.115Z,1.47
2018-12-03T23:59:13.691Z,1.47
